1J0 weather

Tri-County Airport
Bonifay, Florida, United States

Public forecast

Using degrees Fahrenheit for public forecast. Weather courtesy of forecast.io.

METAR (pilot weather report)

Retrieved 2017/10/21 11:58 UTC (52 minutes ago):

K1J0 211158Z AUTO 06003KT 10SM CLR 17/17 A3018 RMK AO2 SLP176 T01720172 10178 20161 TSNO $

TAF (pilot weather forecast)

Closest forecast is Cairns AAF (Fort Rucker) Air Field, 26.4 nm (49.0 km) NNW. Retrieved 2017/10/21 08:05 UTC (5 hours ago):

TAF KOZR 210800Z 2108/2214 09006KT 9999 SCT030 QNH3014INS BECMG 2116/2117 10010G15KT 9999 FEW030 QNH3013INS BECMG 2123/2124 10006KT 9999 SCT030 QNH3015INS TX28/2120Z TN13/2112Z